Time;durP1;ratioP1;P1;durP2;ratioP2;P2;SDS_P1;SDS_P2;PMS_P1;PMS_P2;Temp;Humidity;BMP_temperature;BMP_pressure;BME280_temperature;BME280_humidity;BME280_pressure;Samples;Min_cycle;Max_cycle;Signal;HPM_P1;HPM_P2
2021/10/16 00:00:22;;;;;;;5.47;2.42;;;;;;;18.68;61.79;102331.69;4868620;29;20072;-79
2021/10/16 00:02:47;;;;;;;4.53;2.28;;;;;;;18.68;61.70;102325.59;4865759;29;20071;-79
2021/10/16 00:05:13;;;;;;;4.65;2.40;;;;;;;18.69;61.76;102333.44;4865936;29;20029;-80
2021/10/16 00:07:38;;;;;;;3.90;2.42;;;;;;;18.70;61.69;102327.38;4898622;29;20454;-78
2021/10/16 00:10:05;;;;;;;4.53;2.70;;;;;;;18.68;61.69;102336.00;4869207;29;20043;-80
2021/10/16 00:12:30;;;;;;;4.40;2.30;;;;;;;18.68;61.90;102336.00;4869231;29;20508;-80
2021/10/16 00:14:59;;;;;;;5.45;2.60;;;;;;;18.70;61.97;102331.69;4901554;29;20060;-80
2021/10/16 00:17:24;;;;;;;4.68;2.50;;;;;;;18.68;61.89;102334.31;4884375;29;20032;-78
2021/10/16 00:19:50;;;;;;;5.38;2.72;;;;;;;18.67;62.01;102335.16;4884699;29;20383;-80
2021/10/16 00:22:20;;;;;;;4.70;2.55;;;;;;;18.67;61.88;102329.06;4900010;29;20041;-78
2021/10/16 00:24:46;;;;;;;4.10;2.25;;;;;;;18.66;62.00;102333.41;4899891;29;20517;-80
2021/10/16 00:27:11;;;;;;;4.72;2.70;;;;;;;18.67;61.84;102329.94;4853672;29;20046;-80
2021/10/16 00:29:36;;;;;;;3.88;2.30;;;;;;;18.67;61.84;102327.31;4869071;29;20025;-81
2021/10/16 00:32:02;;;;;;;4.03;2.20;;;;;;;18.67;61.91;102332.53;4868774;29;20067;-79
2021/10/16 00:34:27;;;;;;;4.50;2.40;;;;;;;18.66;62.00;102330.81;4884351;29;20047;-80
2021/10/16 00:36:53;;;;;;;4.68;2.50;;;;;;;18.65;61.88;102315.13;4868582;29;20498;-81
2021/10/16 00:39:18;;;;;;;4.55;2.33;;;;;;;18.67;61.84;102326.47;4900821;29;20028;-79
2021/10/16 00:41:43;;;;;;;4.55;2.42;;;;;;;18.66;61.75;102323.00;4853145;29;20036;-79
2021/10/16 00:44:15;;;;;;;5.47;2.50;;;;;;;18.66;61.75;102322.09;4868918;29;20557;-80
2021/10/16 00:46:41;;;;;;;5.38;2.70;;;;;;;18.64;61.99;102322.09;4900956;29;20111;-80
2021/10/16 00:49:06;;;;;;;4.53;2.22;;;;;;;18.65;61.88;102320.34;4883966;29;20059;-81
2021/10/16 00:51:33;;;;;;;5.35;2.17;;;;;;;18.64;61.77;102322.09;4884344;29;20052;-79
2021/10/16 00:54:03;;;;;;;4.28;2.60;;;;;;;18.65;61.92;102323.81;4868866;29;20039;-80
2021/10/16 00:56:29;;;;;;;4.10;2.15;;;;;;;18.65;61.92;102322.97;4884638;29;20029;-81
2021/10/16 00:58:56;;;;;;;3.97;2.22;;;;;;;18.65;61.87;102322.97;4884162;29;20439;-81
2021/10/16 01:01:21;;;;;;;5.00;2.63;;;;;;;18.65;61.70;102315.13;4868382;29;20048;-80
2021/10/16 01:03:47;;;;;;;4.20;2.20;;;;;;;18.64;61.87;102319.50;4853245;29;20051;-80
2021/10/16 01:06:12;;;;;;;4.18;2.22;;;;;;;18.63;62.05;102320.34;4883801;29;20080;-78
2021/10/16 01:08:38;;;;;;;5.63;2.38;;;;;;;18.64;61.87;102319.50;4883934;29;20036;-78
2021/10/16 01:11:06;;;;;;;4.22;2.33;;;;;;;18.64;61.88;102324.69;4883617;29;20039;-78
2021/10/16 01:13:32;;;;;;;4.32;2.33;;;;;;;18.64;61.73;102319.50;4899014;29;20382;-79
2021/10/16 01:15:58;;;;;;;3.42;2.03;;;;;;;18.63;61.90;102316.84;4883520;29;20036;-79
2021/10/16 01:18:24;;;;;;;4.63;2.13;;;;;;;18.64;61.80;102313.38;4899954;29;20040;-78
2021/10/16 01:21:03;;;;;;;3.47;1.95;;;;;;;18.63;61.71;102324.69;4882655;29;20384;-77
2021/10/16 01:23:29;;;;;;;3.67;2.05;;;;;;;18.63;61.76;102327.28;4883323;29;20397;-79
2021/10/16 01:25:55;;;;;;;3.97;2.00;;;;;;;18.63;61.71;102317.72;4867739;29;20036;-79
2021/10/16 01:28:21;;;;;;;4.20;2.13;;;;;;;18.63;61.63;102312.50;4898578;29;20025;-78
2021/10/16 01:30:47;;;;;;;4.35;2.40;;;;;;;18.62;61.58;102308.16;4867831;29;20042;-78
2021/10/16 01:33:12;;;;;;;3.58;2.38;;;;;;;18.63;61.80;102301.22;4883123;29;20053;-79
2021/10/16 01:35:38;;;;;;;4.22;2.40;;;;;;;18.63;61.72;102306.44;4882962;29;20032;-79
2021/10/16 01:38:03;;;;;;;4.43;2.28;;;;;;;18.63;61.73;102303.81;4882904;29;20064;-79
2021/10/16 01:40:28;;;;;;;4.78;1.90;;;;;;;18.61;61.76;102303.78;4867544;29;20080;-80
2021/10/16 01:42:54;;;;;;;3.90;2.30;;;;;;;18.61;61.72;102303.78;4900052;29;20032;-78
2021/10/16 01:45:20;;;;;;;3.15;1.95;;;;;;;18.61;61.64;102302.94;4852531;29;20037;-79
2021/10/16 01:47:50;;;;;;;4.32;2.60;;;;;;;18.61;61.76;102293.38;4883154;29;20156;-77
2021/10/16 01:50:18;;;;;;;5.03;2.15;;;;;;;18.60;61.79;102296.84;4882863;29;20063;-79
2021/10/16 01:52:43;;;;;;;5.03;2.03;;;;;;;18.60;61.80;102293.38;4882548;29;20048;-78
2021/10/16 01:55:09;;;;;;;4.03;2.17;;;;;;;18.60;61.67;102298.59;4867316;29;20055;-77
2021/10/16 01:57:34;;;;;;;4.03;2.40;;;;;;;18.60;61.74;102302.06;4899397;29;20032;-78
2021/10/16 02:00:02;;;;;;;4.03;1.85;;;;;;;18.61;61.68;102302.94;4882451;29;20041;-81
2021/10/16 02:02:27;;;;;;;6.10;2.17;;;;;;;18.60;61.69;102303.81;4897895;29;20036;-79
2021/10/16 02:04:53;;;;;;;4.18;2.20;;;;;;;18.59;61.66;102300.28;4867103;29;20040;-79
2021/10/16 02:07:18;;;;;;;3.78;2.00;;;;;;;18.59;61.55;102294.22;4867134;29;20481;-79
2021/10/16 02:09:44;;;;;;;3.97;2.10;;;;;;;18.60;61.64;102301.19;4866914;29;20032;-78
2021/10/16 02:12:12;;;;;;;3.58;1.80;;;;;;;18.59;61.60;102299.44;4882479;29;20032;-78
2021/10/16 02:14:37;;;;;;;3.63;1.92;;;;;;;18.58;61.65;102298.56;4897633;29;20047;-80
2021/10/16 02:17:02;;;;;;;5.28;2.10;;;;;;;18.58;61.68;102288.13;4898993;29;20028;-80
2021/10/16 02:19:28;;;;;;;3.80;2.00;;;;;;;18.59;61.70;102292.47;4899221;29;20032;-81
2021/10/16 02:21:53;;;;;;;2.80;1.70;;;;;;;18.59;61.63;102286.41;4882275;29;20031;-80
2021/10/16 02:24:18;;;;;;;3.45;2.05;;;;;;;18.59;61.62;102286.41;4882047;29;20038;-81
2021/10/16 02:26:44;;;;;;;3.67;2.10;;;;;;;18.58;61.82;102285.53;4881932;29;20482;-79
2021/10/16 02:29:09;;;;;;;4.20;2.08;;;;;;;18.57;61.63;102283.75;4897709;29;20497;-79
2021/10/16 02:31:35;;;;;;;4.75;2.10;;;;;;;18.56;61.63;102282.03;4881347;29;20660;-81
2021/10/16 02:34:00;;;;;;;3.20;2.05;;;;;;;18.59;61.66;102289.00;4866764;29;20084;-79
2021/10/16 02:36:25;;;;;;;3.33;1.90;;;;;;;18.57;61.43;102291.59;4899234;29;20115;-80
2021/10/16 02:38:51;;;;;;;4.25;1.95;;;;;;;18.58;61.76;102290.75;4882220;29;20028;-80
2021/10/16 02:41:16;;;;;;;3.83;2.05;;;;;;;18.58;61.50;102295.09;4866112;29;20059;-78
2021/10/16 02:43:42;;;;;;;3.38;1.88;;;;;;;18.58;61.59;102293.34;4866518;29;20478;-77
2021/10/16 02:46:13;;;;;;;3.72;2.00;;;;;;;18.57;61.67;102288.13;4881960;29;20072;-78
2021/10/16 02:48:38;;;;;;;3.90;2.05;;;;;;;18.57;61.52;102288.97;4897544;29;20473;-78
2021/10/16 02:51:03;;;;;;;3.75;1.95;;;;;;;18.56;61.48;102289.84;4898905;29;20033;-78
2021/10/16 02:53:29;;;;;;;3.15;1.85;;;;;;;18.57;61.37;102294.19;4898753;29;20030;-79
2021/10/16 02:55:54;;;;;;;3.40;1.67;;;;;;;18.58;61.51;102293.34;4881717;29;20401;-79
2021/10/16 02:58:20;;;;;;;3.60;1.80;;;;;;;18.56;61.62;102289.84;4898578;29;20032;-79
2021/10/16 03:00:45;;;;;;;4.50;2.00;;;;;;;18.56;61.54;102297.69;4881580;29;20091;-81
2021/10/16 03:03:10;;;;;;;3.13;2.00;;;;;;;18.57;61.37;102295.94;4881937;29;20032;-80
2021/10/16 03:05:36;;;;;;;3.20;1.70;;;;;;;18.56;61.45;102289.00;4866209;29;20481;-84
2021/10/16 03:08:01;;;;;;;2.67;1.65;;;;;;;18.56;61.53;102297.69;4882119;29;20029;-84
2021/10/16 03:10:27;;;;;;;4.53;2.20;;;;;;;18.55;61.43;102295.91;4882166;29;20028;-84
2021/10/16 03:12:52;;;;;;;6.35;1.77;;;;;;;18.56;61.55;102302.03;4881626;29;20128;-85
2021/10/16 03:15:17;;;;;;;3.38;1.60;;;;;;;18.55;61.45;102298.53;4850910;29;20505;-84
2021/10/16 03:17:43;;;;;;;3.92;2.05;;;;;;;18.56;61.56;102305.50;4866412;29;20041;-83
2021/10/16 03:20:09;;;;;;;3.45;1.67;;;;;;;18.56;61.50;102302.03;4897251;29;20028;-86
2021/10/16 03:22:34;;;;;;;3.90;1.80;;;;;;;18.57;61.41;102293.31;4881695;29;20066;-82
2021/10/16 03:25:00;;;;;;;2.85;1.80;;;;;;;18.56;61.52;102297.69;4866358;29;20064;-85
2021/10/16 03:27:25;;;;;;;3.90;1.95;;;;;;;18.56;61.39;102295.06;4866129;29;20031;-84
2021/10/16 03:29:50;;;;;;;3.85;1.88;;;;;;;18.55;61.49;102297.66;4896940;29;20423;-85
2021/10/16 03:32:19;;;;;;;3.33;1.73;;;;;;;18.53;61.47;102289.84;4881539;29;20028;-85
2021/10/16 03:34:44;;;;;;;3.13;1.80;;;;;;;18.55;61.45;102288.09;4881656;29;20504;-85
2021/10/16 03:37:10;;;;;;;3.85;1.67;;;;;;;18.55;61.45;102289.84;4881706;29;20119;-85
2021/10/16 03:39:35;;;;;;;3.35;1.80;;;;;;;18.52;61.69;102284.59;4866407;29;20556;-83
2021/10/16 03:42:00;;;;;;;3.20;1.67;;;;;;;18.51;61.73;102288.94;4850761;29;20102;-84
2021/10/16 03:44:26;;;;;;;3.03;1.75;;;;;;;18.51;61.73;102286.34;4869186;29;20028;-80
2021/10/16 03:46:51;;;;;;;2.55;1.58;;;;;;;18.50;62.05;102285.44;4885168;29;20124;-83
2021/10/16 03:49:16;;;;;;;5.93;1.88;;;;;;;18.50;61.91;102293.25;4884928;29;20093;-80
2021/10/16 03:51:42;;;;;;;3.30;1.60;;;;;;;18.52;62.02;102285.47;4884983;29;20039;-80
2021/10/16 03:54:07;;;;;;;3.78;1.80;;;;;;;18.52;61.79;102282.88;4884766;29;20070;-80
2021/10/16 03:56:33;;;;;;;3.10;1.50;;;;;;;18.53;61.68;102282.03;4869277;29;20033;-79
2021/10/16 03:58:58;;;;;;;2.72;1.85;;;;;;;18.53;61.90;102279.41;4885004;29;20032;-78
2021/10/16 04:01:23;;;;;;;3.22;1.60;;;;;;;18.52;61.71;102284.59;4869237;29;20139;-81
2021/10/16 04:03:49;;;;;;;2.80;1.80;;;;;;;18.53;61.88;102283.72;4884924;29;20040;-79
2021/10/16 04:06:15;;;;;;;3.28;1.65;;;;;;;18.52;62.07;102275.03;4869271;29;20071;-80
2021/10/16 04:08:40;;;;;;;3.72;1.85;;;;;;;18.53;61.86;102281.13;4884715;29;20033;-78
2021/10/16 04:11:05;;;;;;;2.97;1.80;;;;;;;18.53;61.63;102274.19;4884595;29;20029;-79
2021/10/16 04:13:31;;;;;;;4.28;1.80;;;;;;;18.52;62.02;102277.66;4869274;29;20033;-78
2021/10/16 04:15:57;;;;;;;4.03;1.83;;;;;;;18.52;61.92;102272.44;4884709;29;20088;-77
2021/10/16 04:18:22;;;;;;;2.78;1.60;;;;;;;18.54;61.84;102277.66;4884511;29;20044;-78
2021/10/16 04:20:47;;;;;;;3.85;1.80;;;;;;;18.53;62.13;102278.50;4869096;29;20071;-80
2021/10/16 04:23:13;;;;;;;3.72;1.70;;;;;;;18.52;61.91;102279.38;4884325;29;20374;-80
2021/10/16 04:25:39;;;;;;;4.40;1.40;;;;;;;18.52;62.10;102277.66;4884622;29;20064;-79
2021/10/16 04:28:04;;;;;;;3.28;1.70;;;;;;;18.53;61.91;102273.31;4884491;29;20537;-80
2021/10/16 04:30:30;;;;;;;3.42;1.80;;;;;;;18.55;62.33;102287.22;4868694;29;20037;-81
2021/10/16 04:32:55;;;;;;;2.53;1.58;;;;;;;18.55;61.96;102277.66;4869025;29;20508;-83
2021/10/16 04:35:21;;;;;;;2.97;1.50;;;;;;;18.54;62.04;102283.75;4884484;29;20484;-78
2021/10/16 04:37:47;;;;;;;2.63;1.60;;;;;;;18.54;62.00;102285.50;4853229;29;20037;-79
2021/10/16 04:40:22;;;;;;;3.55;1.70;;;;;;;18.55;62.00;102287.22;4884290;29;20117;-81
2021/10/16 04:42:49;;;;;;;3.53;1.70;;;;;;;18.53;62.04;102282.03;4885335;29;20115;-81
2021/10/16 04:45:19;;;;;;;4.22;1.52;;;;;;;18.53;62.10;102283.72;4884186;29;20037;-78
2021/10/16 04:47:44;;;;;;;3.08;1.60;;;;;;;18.53;61.90;102283.72;4884040;29;20024;-78
2021/10/16 04:50:10;;;;;;;3.20;1.75;;;;;;;18.52;61.89;102290.69;4883832;29;20035;-79
2021/10/16 04:52:36;;;;;;;2.50;1.33;;;;;;;18.51;62.09;102275.91;4900517;29;20035;-78
2021/10/16 04:55:03;;;;;;;3.85;1.40;;;;;;;18.52;61.98;102282.88;4882896;29;20104;-78
2021/10/16 04:57:28;;;;;;;2.45;1.60;;;;;;;18.50;62.08;102280.22;4883765;29;20032;-79
2021/10/16 04:59:53;;;;;;;3.30;1.60;;;;;;;18.52;61.98;102279.38;4883768;29;20468;-78
2021/10/16 05:02:19;;;;;;;4.47;1.85;;;;;;;18.50;61.87;102276.75;4883752;29;20037;-79
2021/10/16 05:04:44;;;;;;;2.63;1.60;;;;;;;18.50;61.86;102268.94;4900777;29;20498;-81
2021/10/16 05:07:10;;;;;;;3.78;1.85;;;;;;;18.51;62.12;102273.31;4868298;29;20042;-79
2021/10/16 05:09:35;;;;;;;2.33;1.48;;;;;;;18.50;62.18;102274.16;4868554;29;20036;-80
2021/10/16 05:12:00;;;;;;;3.65;1.40;;;;;;;18.49;62.11;102268.06;4883998;29;20025;-78
2021/10/16 05:14:26;;;;;;;4.78;1.70;;;;;;;18.48;61.91;102271.53;4883521;29;20039;-78
2021/10/16 05:16:51;;;;;;;3.90;1.90;;;;;;;18.49;62.03;102272.41;4899068;29;20025;-80
2021/10/16 05:19:17;;;;;;;3.03;1.60;;;;;;;18.50;61.84;102267.19;4899076;29;20036;-80
2021/10/16 05:21:42;;;;;;;2.63;1.40;;;;;;;18.50;62.01;102264.59;4867833;29;20041;-80
2021/10/16 05:24:07;;;;;;;2.65;1.45;;;;;;;18.50;61.93;102255.91;4898950;29;20032;-78
2021/10/16 05:26:33;;;;;;;2.47;1.20;;;;;;;18.49;61.93;102257.66;4900137;29;20103;-79
2021/10/16 05:28:59;;;;;;;4.13;1.30;;;;;;;18.47;61.95;102259.38;4868075;29;20028;-80
2021/10/16 05:31:24;;;;;;;2.10;1.30;;;;;;;18.48;62.02;102252.41;4883383;29;20032;-80
2021/10/16 05:33:50;;;;;;;2.67;1.60;;;;;;;18.48;61.79;102257.63;4867771;29;20036;-80
2021/10/16 05:36:16;;;;;;;2.80;1.40;;;;;;;18.50;61.38;102258.50;4882872;29;20032;-79
2021/10/16 05:38:41;;;;;;;2.53;1.30;;;;;;;18.49;61.76;102255.03;4899755;29;20363;-80
2021/10/16 05:41:10;;;;;;;2.33;1.40;;;;;;;18.47;61.89;102258.50;4883081;29;20389;-81
2021/10/16 05:43:35;;;;;;;2.35;1.20;;;;;;;18.49;61.95;102265.47;4867608;29;20036;-78
2021/10/16 05:46:01;;;;;;;3.10;1.40;;;;;;;18.47;61.93;102256.75;4898822;29;20043;-81
2021/10/16 05:48:30;;;;;;;3.10;1.40;;;;;;;18.47;61.65;102251.53;4883114;29;20032;-80
2021/10/16 05:51:00;;;;;;;2.50;1.50;;;;;;;18.48;61.76;102258.50;4899612;29;20032;-83
2021/10/16 05:53:25;;;;;;;2.65;1.42;;;;;;;18.48;61.58;102262.84;4899836;29;20382;-82
2021/10/16 05:55:51;;;;;;;2.45;1.40;;;;;;;18.49;61.53;102259.38;4898601;29;20039;-75
2021/10/16 05:58:16;;;;;;;2.40;1.38;;;;;;;18.48;61.93;102257.63;4898642;29;20028;-86
2021/10/16 06:00:41;;;;;;;3.55;1.50;;;;;;;18.49;61.80;102262.00;4867661;29;20057;-87
2021/10/16 06:03:07;;;;;;;2.92;1.50;;;;;;;18.48;61.67;102262.84;4867360;29;20029;-84
2021/10/16 06:05:37;;;;;;;3.17;1.40;;;;;;;18.49;61.71;102259.38;4867635;29;20050;-87
2021/10/16 06:08:02;;;;;;;3.10;1.50;;;;;;;18.48;61.95;102255.00;4882869;29;20024;-84
2021/10/16 06:10:28;;;;;;;4.93;1.40;;;;;;;18.47;61.64;102259.38;4882808;29;20076;-84
2021/10/16 06:12:53;;;;;;;2.75;1.50;;;;;;;18.49;62.03;102262.84;4867488;29;20029;-86
2021/10/16 06:15:18;;;;;;;3.15;1.58;;;;;;;18.48;61.86;102253.28;4867510;29;20517;-84
2021/10/16 06:17:44;;;;;;;2.53;1.50;;;;;;;18.49;61.69;102259.38;4899544;29;20067;-83
2021/10/16 06:20:10;;;;;;;3.20;1.40;;;;;;;18.50;61.92;102267.19;4882568;29;20128;-86
2021/10/16 06:22:36;;;;;;;3.90;1.63;;;;;;;18.48;61.97;102263.69;4866780;29;20141;-82
2021/10/16 06:25:01;;;;;;;5.43;1.58;;;;;;;18.50;61.76;102261.13;4897915;29;20064;-83
2021/10/16 06:27:26;;;;;;;4.00;1.60;;;;;;;18.48;61.84;102268.91;4882308;29;20092;-82
2021/10/16 06:29:53;;;;;;;3.60;1.50;;;;;;;18.50;61.73;102266.31;4867105;29;20141;-86
2021/10/16 06:32:19;;;;;;;3.95;1.70;;;;;;;18.49;62.14;102264.59;4897687;29;20059;-80
2021/10/16 06:34:44;;;;;;;2.40;1.30;;;;;;;18.49;61.87;102267.19;4897767;29;20056;-85
2021/10/16 06:37:13;;;;;;;2.97;1.60;;;;;;;18.48;61.86;102268.91;4882181;29;20031;-85
2021/10/16 06:39:38;;;;;;;3.88;1.30;;;;;;;18.48;61.96;102268.91;4898065;29;20088;-83
2021/10/16 06:42:03;;;;;;;4.53;1.63;;;;;;;18.49;61.82;102273.28;4882001;29;20434;-81
2021/10/16 06:44:29;;;;;;;3.10;1.33;;;;;;;18.50;61.90;102274.16;4866777;29;20037;-85
2021/10/16 06:46:54;;;;;;;2.55;1.65;;;;;;;18.50;61.81;102276.75;4851301;29;20052;-85
2021/10/16 06:49:19;;;;;;;4.28;1.60;;;;;;;18.49;61.71;102280.25;4897798;29;20434;-76
2021/10/16 06:51:45;;;;;;;2.88;1.48;;;;;;;18.48;61.65;102279.34;4898918;29;20028;-83
2021/10/16 06:54:12;;;;;;;2.92;1.48;;;;;;;18.48;61.76;102279.34;4867409;29;20056;-89
2021/10/16 06:56:38;;;;;;;3.00;1.23;;;;;;;18.50;61.94;102284.56;4882345;29;20578;-85
2021/10/16 06:59:03;;;;;;;3.13;1.50;;;;;;;18.48;61.78;102286.28;4881962;29;20032;-86
2021/10/16 07:01:29;;;;;;;3.00;1.40;;;;;;;18.49;61.99;102280.25;4881510;29;20103;-85
2021/10/16 07:03:54;;;;;;;6.40;1.63;;;;;;;18.50;61.97;102285.44;4866240;29;20033;-85
2021/10/16 07:06:20;;;;;;;3.22;1.60;;;;;;;18.48;61.83;102275.88;4851219;29;20128;-87
2021/10/16 07:08:45;;;;;;;4.25;1.52;;;;;;;18.49;61.95;102275.03;4851748;29;20153;-83
2021/10/16 07:11:11;;;;;;;2.50;1.67;;;;;;;18.49;62.03;102285.44;4881804;29;20036;-85
2021/10/16 07:13:36;;;;;;;4.95;1.42;;;;;;;18.49;61.92;102286.31;4882482;29;20096;-89
2021/10/16 07:16:02;;;;;;;5.30;1.65;;;;;;;18.51;62.12;102283.75;4882508;29;20033;-84
2021/10/16 07:18:30;;;;;;;11.35;2.92;;;;;;;18.51;62.32;102291.56;4897071;29;20084;-86
2021/10/16 07:20:57;;;;;;;27.63;8.27;;;;;;;18.61;63.46;102288.16;4882367;29;20032;-86
2021/10/16 07:23:28;;;;;;;33.58;7.70;;;;;;;18.69;63.53;102291.72;4866414;29;20025;-84
2021/10/16 07:25:56;;;;;;;31.63;6.95;;;;;;;18.76;63.38;102291.78;4897406;29;20025;-84
2021/10/16 07:28:22;;;;;;;20.77;5.60;;;;;;;18.81;63.58;102295.31;4881684;29;20021;-79
2021/10/16 07:30:48;;;;;;;25.67;5.97;;;;;;;18.80;63.49;102289.22;4881315;29;20115;-81
2021/10/16 07:33:13;;;;;;;28.48;7.90;;;;;;;18.82;63.53;102297.09;4850716;29;20442;-82
2021/10/16 07:35:40;;;;;;;23.38;7.10;;;;;;;18.85;63.55;102294.47;4881590;29;20043;-84
2021/10/16 07:38:05;;;;;;;22.02;6.45;;;;;;;18.90;63.73;102298.88;4881594;29;20041;-86
2021/10/16 07:40:31;;;;;;;21.70;6.10;;;;;;;18.92;64.00;102298.88;4898285;29;20517;-83
2021/10/16 07:42:56;;;;;;;19.27;6.78;;;;;;;18.92;64.14;102301.50;4881519;29;20064;-89
2021/10/16 07:45:22;;;;;;;20.60;6.43;;;;;;;18.93;63.87;102295.44;4881603;29;20032;-83
2021/10/16 07:47:48;;;;;;;17.27;5.65;;;;;;;18.91;63.41;102298.00;4850686;29;20088;-83
2021/10/16 07:50:13;;;;;;;17.30;5.50;;;;;;;18.90;63.64;102304.09;4881414;29;20032;-82
2021/10/16 07:52:39;;;;;;;15.63;4.93;;;;;;;18.89;63.68;102302.34;4897047;29;20033;-84
2021/10/16 07:55:05;;;;;;;17.35;5.40;;;;;;;18.96;63.60;102298.03;4865879;29;20071;-83
2021/10/16 07:57:30;;;;;;;17.90;5.20;;;;;;;18.93;63.45;102307.59;4865593;29;20071;-83
2021/10/16 07:59:55;;;;;;;20.63;4.82;;;;;;;18.89;63.16;102298.88;4881218;29;20039;-79
2021/10/16 08:02:21;;;;;;;17.85;5.75;;;;;;;18.86;63.25;102298.84;4850629;29;20040;-80
2021/10/16 08:04:46;;;;;;;16.33;5.20;;;;;;;18.86;63.34;102306.69;4865906;29;20043;-80
2021/10/16 08:07:11;;;;;;;12.85;4.88;;;;;;;18.83;63.25;102307.50;4881057;29;20033;-76
2021/10/16 08:09:40;;;;;;;12.85;4.60;;;;;;;18.82;63.09;102303.16;4865676;29;20032;-75
2021/10/16 08:12:05;;;;;;;24.90;6.30;;;;;;;18.82;63.13;102297.94;4881065;29;20451;-75
2021/10/16 08:14:31;;;;;;;32.28;8.30;;;;;;;18.83;62.94;102306.63;4897881;29;20040;-78
2021/10/16 08:16:57;;;;;;;31.95;7.85;;;;;;;18.86;62.78;102306.69;4865710;29;20032;-76
2021/10/16 08:19:22;;;;;;;27.63;7.28;;;;;;;18.86;62.84;102304.06;4896602;29;20044;-78
2021/10/16 08:21:48;;;;;;;24.17;6.95;;;;;;;18.87;62.87;102311.88;4880902;29;20384;-75
2021/10/16 08:24:13;;;;;;;28.65;7.32;;;;;;;18.87;62.72;102319.72;4881483;29;20465;-75
2021/10/16 08:26:39;;;;;;;25.23;6.80;;;;;;;18.85;62.47;102312.75;4881389;29;20037;-74
2021/10/16 08:29:04;;;;;;;19.55;6.60;;;;;;;18.84;62.70;102316.22;4897626;29;20116;-75
2021/10/16 08:31:30;;;;;;;26.38;6.88;;;;;;;18.81;62.71;102317.03;4900194;29;20028;-75
2021/10/16 08:33:55;;;;;;;25.60;6.72;;;;;;;18.81;62.59;102317.03;4901604;29;20054;-74
2021/10/16 08:36:21;;;;;;;19.25;6.68;;;;;;;18.79;62.54;102313.59;4868838;29;20038;-75
2021/10/16 08:38:46;;;;;;;16.80;6.07;;;;;;;18.80;62.47;102314.44;4884284;29;20040;-75
2021/10/16 08:41:12;;;;;;;20.25;5.65;;;;;;;18.78;62.40;102314.44;4899705;29;20199;-76
2021/10/16 08:43:39;;;;;;;24.55;5.68;;;;;;;18.77;62.20;102312.66;4899612;29;20029;-75
2021/10/16 08:46:05;;;;;;;19.65;5.40;;;;;;;18.78;62.29;102319.63;4899731;29;20032;-74
2021/10/16 08:48:34;;;;;;;14.32;5.60;;;;;;;18.78;62.46;102317.03;4883759;29;20051;-76
2021/10/16 08:51:02;;;;;;;15.65;5.35;;;;;;;18.78;62.43;102324.84;4883672;29;20048;-77
2021/10/16 08:53:28;;;;;;;16.40;5.15;;;;;;;18.79;62.37;102325.72;4900275;29;20096;-74
2021/10/16 08:55:53;;;;;;;16.95;5.22;;;;;;;18.79;62.32;102317.91;4883762;29;20029;-75
2021/10/16 08:58:20;;;;;;;14.02;4.90;;;;;;;18.79;62.07;102323.13;4900515;29;20032;-76
2021/10/16 09:00:51;;;;;;;12.88;4.55;;;;;;;18.80;62.24;102330.09;4900277;29;20052;-75
2021/10/16 09:03:35;;;;;;;15.63;5.03;;;;;;;18.80;62.03;102325.75;4883573;29;20047;-76
2021/10/16 09:06:11;;;;;;;13.65;4.95;;;;;;;18.80;62.02;102317.91;4883592;29;20072;-74
2021/10/16 09:08:42;;;;;;;15.13;4.82;;;;;;;18.80;62.02;102322.28;4900480;29;20028;-74
2021/10/16 09:11:22;;;;;;;11.82;3.95;;;;;;;18.81;61.90;102321.41;4898939;29;20111;-75
2021/10/16 09:13:52;;;;;;;15.75;4.60;;;;;;;18.81;61.86;102327.47;4898767;29;20037;-75
2021/10/16 09:16:39;;;;;;;13.77;5.00;;;;;;;18.82;61.93;102323.16;4883755;29;20029;-77
2021/10/16 09:19:35;;;;;;;13.73;4.80;;;;;;;18.83;61.60;102323.16;4900391;29;20046;-75
2021/10/16 09:22:10;;;;;;;14.10;4.43;;;;;;;18.84;61.73;102324.06;4888872;29;20044;-76
2021/10/16 09:24:44;;;;;;;10.95;4.10;;;;;;;18.83;61.63;102322.28;4883397;29;20025;-75
2021/10/16 09:27:13;;;;;;;11.10;4.22;;;;;;;18.81;61.60;102319.66;4883179;29;20478;-76
2021/10/16 09:29:44;;;;;;;11.77;4.07;;;;;;;18.84;61.49;102321.44;4898812;29;20025;-77
2021/10/16 09:32:15;;;;;;;10.43;4.43;;;;;;;18.84;61.68;102321.44;4899163;29;20458;-75
2021/10/16 09:34:43;;;;;;;14.05;4.18;;;;;;;18.85;61.58;102320.56;4883147;29;20024;-75
2021/10/16 09:37:28;;;;;;;10.13;4.30;;;;;;;18.84;61.47;102316.22;4897553;29;20047;-76
2021/10/16 09:39:59;;;;;;;11.98;3.97;;;;;;;18.83;61.27;102311.84;4899638;29;20032;-75
2021/10/16 09:42:30;;;;;;;10.32;4.05;;;;;;;18.82;61.61;102318.81;4882399;29;20124;-76
2021/10/16 09:44:57;;;;;;;8.30;3.70;;;;;;;18.81;61.62;102319.66;4899669;29;20035;-75
2021/10/16 09:47:22;;;;;;;11.02;3.92;;;;;;;18.81;61.52;102321.41;4899406;29;20031;-75
2021/10/16 09:49:54;;;;;;;9.32;3.80;;;;;;;18.80;61.47;102330.97;4882792;29;20390;-76
2021/10/16 09:52:20;;;;;;;11.88;3.78;;;;;;;18.81;61.69;102327.47;4899430;29;20541;-76
2021/10/16 09:54:48;;;;;;;9.30;3.97;;;;;;;18.81;61.32;102324.00;4882623;29;20046;-75
2021/10/16 09:57:19;;;;;;;9.68;3.67;;;;;;;18.82;61.59;102333.59;4882730;29;20389;-76
2021/10/16 09:59:45;;;;;;;12.13;3.65;;;;;;;18.81;61.37;102332.69;4883013;29;20036;-75
2021/10/16 10:02:11;;;;;;;9.85;3.80;;;;;;;18.81;61.44;102324.88;4882441;29;20059;-75
2021/10/16 10:04:40;;;;;;;9.50;3.55;;;;;;;18.81;61.47;102327.47;4882659;29;20051;-75
2021/10/16 10:07:07;;;;;;;10.70;3.80;;;;;;;18.81;61.29;102330.09;4898353;29;20371;-77
2021/10/16 10:09:33;;;;;;;10.00;3.60;;;;;;;18.81;61.30;102329.22;4899352;29;20091;-77
2021/10/16 10:11:59;;;;;;;8.00;3.22;;;;;;;18.81;61.25;102334.44;4882496;29;20025;-76
2021/10/16 10:14:25;;;;;;;10.05;3.97;;;;;;;18.82;61.39;102331.84;4899318;29;20024;-76
2021/10/16 10:17:04;;;;;;;9.43;2.97;;;;;;;18.82;61.34;102330.97;4899039;29;20035;-74
2021/10/16 10:19:31;;;;;;;7.50;3.35;;;;;;;18.82;61.23;102326.63;4882028;29;20469;-76
2021/10/16 10:21:57;;;;;;;7.75;3.22;;;;;;;18.84;61.23;102329.28;4866766;29;20028;-76
2021/10/16 10:24:37;;;;;;;10.70;3.13;;;;;;;18.84;61.00;102326.66;4897562;29;20036;-75
2021/10/16 10:27:09;;;;;;;7.28;3.15;;;;;;;18.85;60.85;102331.00;4898028;29;20028;-75
2021/10/16 10:29:43;;;;;;;9.10;3.40;;;;;;;18.85;60.96;102321.44;4882315;29;20040;-75
2021/10/16 10:32:21;;;;;;;;;;;;;;;18.85;60.95;102310.13;4882315;29;20023;-76
2021/10/16 10:34:58;;;;;;;7.68;3.05;;;;;;;18.88;61.06;102316.25;4898718;29;19911;-77
2021/10/16 10:37:42;;;;;;;7.60;3.03;;;;;;;18.91;60.88;102307.59;4882143;29;20028;-75
2021/10/16 10:40:19;;;;;;;9.32;3.50;;;;;;;18.91;60.74;102310.19;4898747;29;20029;-75
2021/10/16 10:42:52;;;;;;;6.60;3.30;;;;;;;18.91;60.76;102310.19;4881670;29;20051;-74
2021/10/16 10:45:36;;;;;;;7.55;3.10;;;;;;;18.90;60.80;102306.72;4897510;29;20553;-75
2021/10/16 10:48:04;;;;;;;7.25;3.33;;;;;;;18.91;60.76;102310.19;4898769;29;20037;-75
2021/10/16 10:50:54;;;;;;;6.90;2.55;;;;;;;18.91;60.76;102302.38;4881747;29;20029;-75
2021/10/16 10:53:26;;;;;;;5.57;2.80;;;;;;;18.91;60.86;102303.22;4897660;29;20381;-74
2021/10/16 10:56:07;;;;;;;6.85;2.75;;;;;;;18.92;60.84;102306.69;4898615;29;20029;-75
2021/10/16 10:58:56;;;;;;;7.30;2.80;;;;;;;18.96;60.70;102300.66;4898482;29;20489;-75
2021/10/16 11:01:51;;;;;;;10.05;2.83;;;;;;;19.00;60.44;102302.44;4881421;29;20066;-75
2021/10/16 11:04:43;;;;;;;9.75;3.15;;;;;;;19.06;60.38;102306.84;4881650;29;20037;-75
2021/10/16 11:07:12;;;;;;;8.90;3.10;;;;;;;19.09;60.13;102299.88;4881592;29;20043;-75
2021/10/16 11:09:38;;;;;;;6.60;2.78;;;;;;;19.11;60.22;102295.56;4898198;29;20024;-75
2021/10/16 11:12:04;;;;;;;6.45;2.47;;;;;;;19.13;60.24;102299.94;4866269;29;20126;-75
2021/10/16 11:14:32;;;;;;;5.18;2.40;;;;;;;19.14;60.36;102296.44;4866111;29;20486;-75
2021/10/16 11:17:01;;;;;;;5.70;2.70;;;;;;;19.15;60.05;102298.19;4898371;29;20111;-74
2021/10/16 11:19:27;;;;;;;7.95;2.78;;;;;;;19.15;60.45;102292.97;4896933;29;20469;-75
2021/10/16 11:21:55;;;;;;;5.75;2.70;;;;;;;19.12;60.23;102293.84;4881446;29;20037;-75
2021/10/16 11:24:20;;;;;;;5.03;2.50;;;;;;;19.09;60.18;102292.06;4881306;29;20036;-75